createdAt,value
2022-12-20T00:01:36.475Z,89.01
2022-12-20T00:04:06.755Z,88.68
2022-12-20T00:06:36.134Z,88.96
2022-12-20T00:09:08.306Z,89.05
2022-12-20T00:11:37.415Z,88.92
2022-12-20T00:14:07.260Z,88.75
2022-12-20T00:16:37.964Z,88.87
2022-12-20T00:19:08.884Z,88.57
2022-12-20T00:21:38.912Z,88.02
2022-12-20T00:24:08.287Z,88.99
2022-12-20T00:26:38.193Z,88.90
2022-12-20T00:29:08.215Z,89.22
2022-12-20T00:31:36.837Z,89.73
2022-12-20T00:34:05.600Z,89.77
2022-12-20T00:36:34.452Z,89.64
2022-12-20T00:39:03.699Z,89.97
2022-12-20T00:41:33.901Z,89.71
2022-12-20T00:44:02.486Z,89.49
2022-12-20T00:46:34.355Z,89.63
2022-12-20T00:49:02.996Z,89.48
2022-12-20T00:51:32.899Z,89.74
2022-12-20T00:54:01.657Z,89.36
2022-12-20T00:56:30.135Z,89.36
2022-12-20T00:59:00.865Z,89.29
2022-12-20T01:01:34.553Z,89.33
2022-12-20T01:04:03.414Z,88.95
2022-12-20T01:06:32.571Z,88.87
2022-12-20T01:09:02.458Z,88.90
2022-12-20T01:11:33.402Z,88.51
2022-12-20T01:14:04.061Z,88.62
2022-12-20T01:16:36.475Z,88.77
2022-12-20T01:19:05.763Z,88.65
2022-12-20T01:21:34.215Z,88.90
2022-12-20T01:24:02.579Z,88.54
2022-12-20T01:26:31.143Z,88.97
2022-12-20T01:29:01.493Z,88.68
2022-12-20T01:31:31.203Z,88.51
2022-12-20T01:34:03.027Z,88.32
2022-12-20T01:36:34.488Z,88.70
2022-12-20T01:39:06.089Z,88.69
2022-12-20T01:41:34.924Z,88.51
2022-12-20T01:44:04.961Z,88.58
2022-12-20T01:46:36.242Z,88.67
2022-12-20T01:49:11.266Z,88.46
2022-12-20T01:51:44.743Z,88.51
2022-12-20T01:54:16.128Z,88.43
2022-12-20T01:56:48.964Z,88.47
2022-12-20T01:59:17.767Z,88.79
2022-12-20T02:01:46.458Z,89.03
2022-12-20T02:04:16.224Z,89.07
2022-12-20T02:06:45.117Z,88.83
2022-12-20T02:09:14.115Z,88.46
2022-12-20T02:11:54.835Z,88.42
2022-12-20T02:14:43.338Z,88.09
2022-12-20T02:17:22.947Z,88.61
2022-12-20T02:20:12.404Z,88.40
2022-12-20T02:22:54.397Z,88.60
2022-12-20T02:25:48.482Z,88.40
2022-12-20T02:28:35.597Z,88.25
2022-12-20T02:31:11.966Z,88.35
2022-12-20T02:33:43.249Z,88.62
2022-12-20T02:36:11.529Z,88.85
2022-12-20T02:38:40.320Z,89.14
2022-12-20T02:41:14.117Z,88.81
2022-12-20T02:44:02.893Z,89.04
2022-12-20T02:46:34.574Z,89.11
2022-12-20T02:49:06.566Z,89.11
2022-12-20T02:51:36.044Z,89.18
2022-12-20T02:54:04.768Z,89.32
2022-12-20T02:56:37.473Z,89.03
2022-12-20T02:59:12.654Z,89.17
2022-12-20T03:01:46.742Z,89.13
2022-12-20T03:04:17.649Z,89.84
2022-12-20T03:06:58.817Z,89.55
2022-12-20T03:09:27.283Z,89.78
2022-12-20T03:11:55.851Z,89.49
2022-12-20T03:14:24.782Z,89.97
2022-12-20T03:16:55.650Z,89.70
2022-12-20T03:19:24.325Z,89.92
2022-12-20T03:21:53.126Z,89.76
2022-12-20T03:24:21.488Z,89.89
2022-12-20T03:26:50.432Z,89.44
2022-12-20T03:29:21.524Z,89.82
2022-12-20T03:31:50.118Z,89.71
2022-12-20T03:34:19.802Z,89.65
2022-12-20T03:36:48.689Z,89.71
2022-12-20T03:39:17.230Z,89.79
2022-12-20T03:41:46.335Z,89.39
2022-12-20T03:44:18.650Z,89.39
2022-12-20T03:46:46.947Z,89.34
2022-12-20T03:49:15.233Z,89.53
2022-12-20T03:51:49.700Z,89.75
2022-12-20T03:54:18.073Z,89.43
2022-12-20T03:57:06.024Z,89.11
2022-12-20T03:59:36.818Z,88.86
2022-12-20T04:02:07.035Z,88.99
2022-12-20T04:04:35.653Z,89.08
2022-12-20T04:07:05.265Z,89.20
2022-12-20T04:09:34.583Z,88.97
2022-12-20T04:12:10.434Z,89.61
2022-12-20T04:14:40.543Z,89.16
2022-12-20T04:17:09.130Z,89.66
2022-12-20T04:19:38.438Z,89.53
2022-12-20T04:22:09.319Z,89.71
2022-12-20T04:24:50.878Z,89.33
2022-12-20T04:27:27.291Z,89.13
2022-12-20T04:29:57.291Z,89.44
2022-12-20T04:32:25.913Z,88.98
2022-12-20T04:34:54.350Z,88.82
2022-12-20T04:37:24.137Z,88.96
2022-12-20T04:39:55.581Z,88.99
2022-12-20T04:42:35.907Z,88.57
2022-12-20T04:45:05.329Z,89.02
2022-12-20T04:47:33.713Z,88.27
2022-12-20T04:50:02.019Z,88.68
2022-12-20T04:52:49.797Z,89.03
2022-12-20T04:55:18.211Z,89.06
2022-12-20T04:57:46.846Z,89.60
2022-12-20T05:00:17.383Z,89.16
2022-12-20T05:02:51.613Z,89.19
2022-12-20T05:05:22.263Z,89.17
2022-12-20T05:07:55.415Z,89.73
2022-12-20T05:10:24.825Z,89.47
2022-12-20T05:12:55.178Z,89.49
2022-12-20T05:15:33.813Z,89.74
2022-12-20T05:18:02.471Z,89.50
2022-12-20T05:20:40.450Z,89.33
2022-12-20T05:23:28.813Z,89.53
2022-12-20T05:26:19.092Z,89.65
2022-12-20T05:28:49.348Z,89.51
2022-12-20T05:31:18.775Z,89.30
2022-12-20T05:33:47.422Z,88.79
2022-12-20T05:36:18.388Z,89.17
2022-12-20T05:38:48.988Z,88.88
2022-12-20T05:41:21.223Z,88.94
2022-12-20T05:43:53.049Z,88.91
2022-12-20T05:46:21.528Z,89.42
2022-12-20T05:48:58.536Z,88.92
2022-12-20T05:51:26.986Z,89.07
2022-12-20T05:54:02.116Z,88.91
2022-12-20T05:56:43.046Z,89.15
2022-12-20T05:59:11.381Z,89.21
2022-12-20T06:01:39.861Z,88.96
2022-12-20T06:04:08.368Z,89.09
2022-12-20T06:06:36.832Z,88.99
2022-12-20T06:09:06.609Z,88.64
2022-12-20T06:11:42.035Z,88.77
2022-12-20T06:14:13.186Z,89.11
2022-12-20T06:16:46.887Z,88.72
2022-12-20T06:19:21.648Z,88.84
2022-12-20T06:21:53.572Z,88.85
2022-12-20T06:24:30.529Z,88.68
2022-12-20T06:26:59.063Z,88.96
2022-12-20T06:29:28.488Z,88.78
2022-12-20T06:32:05.466Z,88.98
2022-12-20T06:34:33.862Z,88.88
2022-12-20T06:37:02.958Z,88.79
2022-12-20T06:39:35.848Z,88.52
2022-12-20T06:42:06.125Z,88.83
2022-12-20T06:44:36.556Z,88.60
2022-12-20T06:47:05.161Z,88.40
2022-12-20T06:49:34.621Z,88.53
2022-12-20T06:52:07.801Z,88.98
2022-12-20T06:54:47.533Z,88.75
2022-12-20T06:57:15.908Z,88.50
2022-12-20T06:59:46.801Z,88.38
2022-12-20T07:02:15.849Z,88.98
2022-12-20T07:04:44.355Z,88.42
2022-12-20T07:07:13.837Z,88.53
2022-12-20T07:09:42.875Z,88.90
2022-12-20T07:12:13.045Z,88.71
2022-12-20T07:14:41.419Z,89.10
2022-12-20T07:17:09.803Z,89.07
2022-12-20T07:19:38.418Z,89.17
2022-12-20T07:22:07.087Z,89.34
2022-12-20T07:24:35.593Z,89.46
2022-12-20T07:27:04.274Z,88.98
2022-12-20T07:29:34.018Z,89.44
2022-12-20T07:32:02.510Z,89.37
2022-12-20T07:34:30.806Z,89.06
2022-12-20T07:36:59.135Z,88.82
2022-12-20T07:39:27.591Z,88.99
2022-12-20T07:41:56.509Z,88.89
2022-12-20T07:44:25.068Z,89.25
2022-12-20T07:46:55.070Z,89.07
2022-12-20T07:49:23.321Z,89.57
2022-12-20T07:51:56.731Z,89.84
2022-12-20T07:54:28.645Z,89.58
2022-12-20T07:57:01.019Z,89.57
2022-12-20T07:59:37.021Z,89.43
2022-12-20T08:02:07.993Z,89.74
2022-12-20T08:04:36.530Z,89.86
2022-12-20T08:07:04.961Z,89.81
2022-12-20T08:09:38.758Z,89.49
2022-12-20T08:12:09.688Z,89.66
2022-12-20T08:14:38.221Z,89.82
2022-12-20T08:17:09.230Z,90.00
2022-12-20T08:19:38.950Z,90.00
2022-12-20T08:22:07.374Z,89.48
2022-12-20T08:24:36.712Z,89.28
2022-12-20T08:27:05.088Z,89.36
2022-12-20T08:29:33.657Z,89.19
2022-12-20T08:32:02.051Z,89.09
2022-12-20T08:34:31.751Z,88.97
2022-12-20T08:37:00.289Z,88.70
2022-12-20T08:39:28.722Z,88.93
2022-12-20T08:41:56.962Z,88.46
2022-12-20T08:44:25.628Z,88.69
2022-12-20T08:46:54.419Z,88.61
2022-12-20T08:49:22.824Z,88.69
2022-12-20T08:51:52.591Z,88.42
2022-12-20T08:54:21.055Z,88.29
2022-12-20T08:56:49.347Z,88.30
2022-12-20T08:59:17.854Z,88.38
2022-12-20T09:01:46.175Z,88.37
2022-12-20T09:04:15.491Z,88.45
2022-12-20T09:06:43.805Z,88.29
2022-12-20T09:09:13.530Z,88.32
2022-12-20T09:11:41.821Z,88.00
2022-12-20T09:14:11.014Z,87.66
2022-12-20T09:16:39.252Z,87.87
2022-12-20T09:19:07.713Z,87.87
2022-12-20T09:21:36.386Z,87.24
2022-12-20T09:24:05.608Z,87.32
2022-12-20T09:26:36.142Z,86.96
2022-12-20T09:29:05.293Z,86.77
2022-12-20T09:31:33.506Z,87.07
2022-12-20T09:34:02.137Z,87.08
2022-12-20T09:36:31.609Z,87.17
2022-12-20T09:39:00.152Z,87.13
2022-12-20T09:41:34.344Z,87.19
2022-12-20T09:44:12.654Z,86.81
2022-12-20T09:46:42.472Z,87.25
2022-12-20T09:49:16.982Z,86.95
2022-12-20T09:51:58.591Z,86.71
2022-12-20T09:54:36.199Z,86.73
2022-12-20T09:57:16.942Z,86.69
2022-12-20T09:59:49.852Z,87.00
2022-12-20T10:05:16.600Z,86.71
2022-12-20T10:07:55.749Z,86.61
2022-12-20T10:10:52.786Z,86.34
2022-12-20T10:13:47.820Z,85.94
2022-12-20T10:16:34.479Z,86.22
2022-12-20T10:19:16.243Z,86.09
2022-12-20T10:21:51.459Z,86.09
2022-12-20T10:24:21.667Z,86.23
2022-12-20T10:26:51.874Z,86.16
2022-12-20T10:29:21.245Z,86.08
2022-12-20T10:31:54.325Z,86.08
2022-12-20T10:34:22.653Z,85.88
2022-12-20T10:37:11.038Z,85.73
2022-12-20T10:39:43.463Z,85.52
2022-12-20T10:42:27.107Z,85.27
2022-12-20T10:44:57.072Z,85.47
2022-12-20T10:47:37.814Z,85.25
2022-12-20T10:50:19.938Z,85.30
2022-12-20T10:53:05.667Z,85.14
2022-12-20T10:55:36.812Z,85.14
2022-12-20T10:58:07.436Z,85.17
2022-12-20T11:00:35.813Z,85.23
2022-12-20T11:03:09.314Z,84.99
2022-12-20T11:05:39.077Z,84.93
2022-12-20T11:08:36.023Z,84.60
2022-12-20T11:11:18.745Z,84.56
2022-12-20T11:13:48.003Z,84.72
2022-12-20T11:16:41.718Z,84.37
2022-12-20T11:19:32.328Z,84.17
2022-12-20T11:22:09.180Z,84.47
2022-12-20T11:24:47.277Z,84.39
2022-12-20T11:27:26.199Z,84.06
2022-12-20T11:30:18.874Z,83.99
2022-12-20T11:33:12.719Z,83.91
2022-12-20T11:35:52.398Z,84.18
2022-12-20T11:38:32.436Z,84.25
2022-12-20T11:41:18.145Z,83.62
2022-12-20T11:44:25.222Z,83.29
2022-12-20T11:47:03.524Z,83.01
2022-12-20T11:49:54.429Z,82.68
2022-12-20T11:52:34.872Z,82.46
2022-12-20T11:55:20.739Z,82.49
2022-12-20T12:00:53.153Z,81.98
2022-12-20T12:03:29.178Z,82.07
2022-12-20T12:06:01.991Z,81.91
2022-12-20T12:08:41.025Z,81.53
2022-12-20T12:11:55.759Z,81.58
2022-12-20T12:14:06.324Z,81.46
2022-12-20T12:16:39.276Z,80.72
2022-12-20T12:19:12.690Z,80.34
2022-12-20T12:21:45.732Z,80.54
2022-12-20T12:24:23.660Z,80.45
2022-12-20T12:26:52.354Z,80.47
2022-12-20T12:29:23.201Z,80.33
2022-12-20T12:31:56.636Z,80.14
2022-12-20T12:34:37.544Z,79.98
2022-12-20T12:37:28.437Z,80.21
2022-12-20T12:40:16.421Z,80.00
2022-12-20T12:43:29.377Z,80.20
2022-12-20T12:46:00.469Z,80.36
2022-12-20T12:48:37.280Z,80.32
2022-12-20T12:51:07.553Z,80.26
2022-12-20T12:53:39.078Z,80.55
2022-12-20T12:56:44.713Z,80.31
2022-12-20T12:59:41.002Z,80.66
2022-12-20T13:02:36.935Z,80.85
2022-12-20T13:05:34.860Z,80.85
2022-12-20T13:08:04.778Z,81.06
2022-12-20T13:11:00.563Z,80.92
2022-12-20T13:13:30.420Z,81.04
2022-12-20T13:17:02.240Z,80.97
2022-12-20T13:19:19.522Z,81.38
2022-12-20T13:21:48.749Z,81.27
2022-12-20T13:25:03.128Z,80.80
2022-12-20T13:27:34.983Z,80.94
2022-12-20T13:30:27.362Z,80.62
2022-12-20T13:33:04.177Z,80.83
2022-12-20T13:35:47.753Z,80.88
2022-12-20T13:39:01.604Z,80.64
2022-12-20T13:41:36.627Z,80.54
2022-12-20T13:44:20.680Z,80.33
2022-12-20T13:46:55.750Z,80.06
2022-12-20T13:49:27.209Z,80.04
2022-12-20T13:52:17.499Z,79.85
2022-12-20T13:54:48.989Z,80.15
2022-12-20T13:57:22.940Z,79.99
2022-12-20T14:00:03.512Z,79.50
2022-12-20T14:02:41.271Z,79.22
2022-12-20T14:05:18.100Z,79.01
2022-12-20T14:07:49.056Z,79.11
2022-12-20T14:10:22.008Z,79.16
2022-12-20T14:12:54.508Z,78.76
2022-12-20T14:15:28.746Z,78.57
2022-12-20T14:17:59.332Z,78.73
2022-12-20T14:20:32.177Z,78.86
2022-12-20T14:23:06.548Z,78.91
2022-12-20T14:25:43.456Z,79.03
2022-12-20T14:28:26.978Z,78.93
2022-12-20T14:30:57.325Z,78.96
2022-12-20T14:33:37.748Z,78.75
2022-12-20T14:36:12.020Z,78.73
2022-12-20T14:38:41.589Z,78.98
2022-12-20T14:41:36.047Z,79.01
2022-12-20T14:44:16.845Z,79.22
2022-12-20T14:46:50.446Z,79.15
2022-12-20T14:49:24.956Z,79.17
2022-12-20T14:51:54.811Z,79.39
2022-12-20T14:57:24.693Z,79.32
2022-12-20T15:00:02.664Z,79.12
2022-12-20T15:02:41.753Z,79.26
2022-12-20T15:05:51.335Z,79.36
2022-12-20T15:08:22.670Z,79.73
2022-12-20T15:10:57.438Z,79.76
2022-12-20T15:13:30.143Z,79.75
2022-12-20T15:16:01.739Z,79.82
2022-12-20T15:18:30.269Z,79.66
2022-12-20T15:21:11.723Z,79.50
2022-12-20T15:23:45.112Z,79.71
2022-12-20T15:26:16.474Z,79.84
2022-12-20T15:28:45.340Z,80.03
2022-12-20T15:31:15.452Z,80.04
2022-12-20T15:33:45.025Z,80.34
2022-12-20T15:36:18.446Z,80.11
2022-12-20T15:39:11.385Z,80.26
2022-12-20T15:41:36.128Z,80.47
2022-12-20T15:44:11.570Z,80.42
2022-12-20T15:46:39.914Z,80.65
2022-12-20T15:49:11.191Z,80.67
2022-12-20T15:51:43.263Z,80.84
2022-12-20T15:54:27.986Z,80.77
2022-12-20T15:56:57.404Z,81.08
2022-12-20T15:59:58.351Z,80.97
2022-12-20T16:02:22.925Z,81.10
2022-12-20T16:04:51.693Z,81.48
2022-12-20T16:07:21.393Z,81.41
2022-12-20T16:09:49.872Z,81.41
2022-12-20T16:12:22.489Z,81.77
2022-12-20T16:14:51.677Z,82.04
2022-12-20T16:17:19.949Z,81.95
2022-12-20T16:19:48.380Z,82.21
2022-12-20T16:22:18.200Z,82.07
2022-12-20T16:24:48.389Z,82.03
2022-12-20T16:27:16.669Z,82.00
2022-12-20T16:29:45.656Z,82.39
2022-12-20T16:32:16.555Z,82.50
2022-12-20T16:34:44.897Z,82.66
2022-12-20T16:37:13.160Z,82.84
2022-12-20T16:39:41.546Z,82.72
2022-12-20T16:42:14.925Z,82.88
2022-12-20T16:44:45.523Z,83.28
2022-12-20T16:47:14.992Z,83.18
2022-12-20T16:49:51.582Z,83.50
2022-12-20T16:52:21.974Z,83.50
2022-12-20T16:54:50.777Z,83.60
2022-12-20T16:57:21.581Z,83.57
2022-12-20T16:59:50.200Z,83.63
2022-12-20T17:02:25.725Z,83.63
2022-12-20T17:04:54.249Z,83.63
2022-12-20T17:07:22.691Z,83.93
2022-12-20T17:12:40.057Z,84.36
2022-12-20T17:15:16.464Z,84.19
2022-12-20T17:17:44.757Z,84.39
2022-12-20T17:20:14.637Z,84.31
2022-12-20T17:22:43.362Z,84.21
2022-12-20T17:25:27.722Z,83.94
2022-12-20T17:27:57.639Z,84.40
2022-12-20T17:30:26.983Z,84.21
2022-12-20T17:32:55.683Z,84.34
2022-12-20T17:35:27.451Z,84.02
2022-12-20T17:37:57.473Z,84.33
2022-12-20T17:40:28.952Z,84.18
2022-12-20T17:42:58.770Z,84.34
2022-12-20T17:45:30.833Z,84.10
2022-12-20T17:48:00.233Z,84.35
2022-12-20T17:50:29.024Z,84.58
2022-12-20T17:52:57.325Z,84.42
2022-12-20T17:55:27.166Z,84.44
2022-12-20T17:57:56.818Z,84.51
2022-12-20T18:00:36.619Z,84.25
2022-12-20T18:03:12.617Z,84.70
2022-12-20T18:05:44.736Z,84.43
2022-12-20T18:08:13.021Z,84.52
2022-12-20T18:10:41.328Z,84.61
2022-12-20T18:13:10.093Z,84.50
2022-12-20T18:15:40.788Z,84.76
2022-12-20T18:18:10.423Z,84.86
2022-12-20T18:20:38.732Z,84.98
2022-12-20T18:23:07.048Z,85.25
2022-12-20T18:25:35.834Z,85.46
2022-12-20T18:28:04.225Z,85.50
2022-12-20T18:30:32.550Z,85.51
2022-12-20T18:33:02.271Z,85.20
2022-12-20T18:35:30.485Z,85.48
2022-12-20T18:37:58.763Z,85.25
2022-12-20T18:40:27.163Z,85.21
2022-12-20T18:42:57.502Z,84.86
2022-12-20T18:45:27.957Z,85.23
2022-12-20T18:47:57.243Z,85.00
2022-12-20T18:50:26.855Z,85.25
2022-12-20T18:53:01.131Z,84.93
2022-12-20T18:55:29.978Z,85.11
2022-12-20T18:57:58.267Z,85.05
2022-12-20T19:00:26.546Z,85.20
2022-12-20T19:02:59.017Z,85.26
2022-12-20T19:05:29.679Z,85.47
2022-12-20T19:07:59.080Z,85.74
2022-12-20T19:10:27.471Z,85.36
2022-12-20T19:12:59.394Z,85.51
2022-12-20T19:15:30.586Z,85.56
2022-12-20T19:17:59.254Z,85.59
2022-12-20T19:20:29.436Z,85.55
2022-12-20T19:22:59.316Z,85.26
2022-12-20T19:25:27.647Z,85.46
2022-12-20T19:27:56.968Z,85.27
2022-12-20T19:30:25.360Z,85.31
2022-12-20T19:32:53.758Z,85.28
2022-12-20T19:35:52.724Z,84.95
2022-12-20T19:38:11.821Z,85.23
2022-12-20T19:40:40.066Z,85.41
2022-12-20T19:43:08.705Z,85.08
2022-12-20T19:45:38.575Z,85.33
2022-12-20T19:48:08.167Z,85.72
2022-12-20T19:50:36.416Z,85.35
2022-12-20T19:53:05.643Z,85.31
2022-12-20T19:55:35.393Z,85.20
2022-12-20T19:58:03.750Z,84.89
2022-12-20T20:00:32.468Z,85.10
2022-12-20T20:03:01.068Z,84.77
2022-12-20T20:05:29.541Z,85.08
2022-12-20T20:07:57.870Z,85.00
2022-12-20T20:10:26.139Z,84.90
2022-12-20T20:12:55.819Z,85.10
2022-12-20T20:15:24.098Z,85.13
2022-12-20T20:17:53.630Z,85.28
2022-12-20T20:20:22.537Z,84.93
2022-12-20T20:22:50.781Z,85.08
2022-12-20T20:25:19.203Z,84.99
2022-12-20T20:27:48.097Z,84.85
2022-12-20T20:30:18.171Z,84.64
2022-12-20T20:32:46.492Z,84.60
2022-12-20T20:35:15.613Z,84.51
2022-12-20T20:37:43.933Z,84.37
2022-12-20T20:40:14.301Z,84.19
2022-12-20T20:42:42.531Z,84.33
2022-12-20T20:45:11.771Z,84.31
2022-12-20T20:47:41.458Z,84.70
2022-12-20T20:50:10.735Z,84.73
2022-12-20T20:52:39.036Z,84.97
2022-12-20T20:55:08.515Z,85.14
2022-12-20T20:57:36.905Z,85.08
2022-12-20T21:00:06.033Z,84.88
2022-12-20T21:02:34.554Z,85.05
2022-12-20T21:05:58.624Z,84.95
2022-12-20T21:07:52.950Z,85.30
2022-12-20T21:10:21.589Z,85.16
2022-12-20T21:12:50.148Z,85.16
2022-12-20T21:15:23.324Z,85.48
2022-12-20T21:17:52.299Z,84.98
2022-12-20T21:20:25.912Z,85.61
2022-12-20T21:22:55.189Z,85.17
2022-12-20T21:25:23.461Z,85.06
2022-12-20T21:27:51.754Z,85.10
2022-12-20T21:30:20.249Z,85.32
2022-12-20T21:32:48.525Z,85.27
2022-12-20T21:35:16.907Z,85.33
2022-12-20T21:37:46.549Z,85.48
2022-12-20T21:40:15.007Z,85.24
2022-12-20T21:42:43.426Z,85.25
2022-12-20T21:45:12.969Z,85.35
2022-12-20T21:47:41.257Z,85.08
2022-12-20T21:50:10.229Z,85.52
2022-12-20T21:52:40.696Z,85.43
2022-12-20T21:55:11.233Z,85.24
2022-12-20T21:57:39.523Z,85.46
2022-12-20T22:00:09.060Z,85.15
2022-12-20T22:02:37.907Z,85.24
2022-12-20T22:05:06.874Z,85.35
2022-12-20T22:07:35.121Z,85.10
2022-12-20T22:10:03.371Z,84.76
2022-12-20T22:12:33.056Z,84.75
2022-12-20T22:15:01.569Z,84.83
2022-12-20T22:17:29.865Z,84.22
2022-12-20T22:19:58.701Z,84.03
2022-12-20T22:22:27.205Z,83.98
2022-12-20T22:24:55.602Z,84.04
2022-12-20T22:27:23.913Z,83.94
2022-12-20T22:29:53.570Z,83.70
2022-12-20T22:32:21.865Z,83.82
2022-12-20T22:34:50.106Z,83.47
2022-12-20T22:37:18.465Z,83.63
2022-12-20T22:39:46.720Z,83.46
2022-12-20T22:42:15.471Z,83.29
2022-12-20T22:44:43.688Z,82.98
2022-12-20T22:47:13.453Z,82.69
2022-12-20T22:49:42.074Z,82.70
2022-12-20T22:52:10.354Z,82.60
2022-12-20T22:54:39.527Z,82.47
2022-12-20T22:57:10.482Z,82.54
2022-12-20T22:59:38.802Z,82.22
2022-12-20T23:02:07.266Z,82.74
2022-12-20T23:04:37.432Z,82.33
2022-12-20T23:07:07.467Z,81.94
2022-12-20T23:09:35.834Z,82.08
2022-12-20T23:12:23.198Z,81.86
2022-12-20T23:15:08.877Z,81.58
2022-12-20T23:17:37.207Z,81.83
2022-12-20T23:20:25.807Z,82.11
2022-12-20T23:22:54.116Z,82.00
2022-12-20T23:25:22.369Z,81.95
2022-12-20T23:27:51.304Z,81.95
2022-12-20T23:30:22.392Z,81.59
2022-12-20T23:32:50.887Z,82.02
2022-12-20T23:35:21.610Z,82.04
2022-12-20T23:37:50.012Z,82.12
2022-12-20T23:40:19.167Z,82.39
2022-12-20T23:42:47.577Z,82.50
2022-12-20T23:45:16.036Z,82.43
2022-12-20T23:47:44.363Z,82.26
2022-12-20T23:50:12.870Z,82.32
2022-12-20T23:52:42.503Z,82.38
2022-12-20T23:55:11.263Z,82.47
2022-12-20T23:57:40.033Z,82.86
